createdAt,value
2019-01-04T00:00:29.025Z,2.60
2019-01-04T00:01:43.936Z,2.60
2019-01-04T00:02:47.985Z,2.60
2019-01-04T00:03:51.859Z,2.50
2019-01-04T00:04:55.723Z,2.40
2019-01-04T00:05:59.707Z,2.30
2019-01-04T00:07:03.609Z,2.30
2019-01-04T00:08:07.501Z,2.40
2019-01-04T00:09:11.501Z,2.40
2019-01-04T00:10:15.494Z,2.40
2019-01-04T00:11:19.297Z,2.40
2019-01-04T00:12:23.299Z,2.50
2019-01-04T00:13:27.308Z,2.50
2019-01-04T00:14:31.211Z,2.40
2019-01-04T00:15:35.117Z,2.40
2019-01-04T00:16:39.060Z,2.40
2019-01-04T00:17:42.821Z,2.30
2019-01-04T00:18:48.111Z,2.20
2019-01-04T00:19:52.179Z,2.20
2019-01-04T00:20:56.179Z,2.30
2019-01-04T00:22:00.199Z,2.40
2019-01-04T00:23:04.188Z,2.40
2019-01-04T00:24:08.113Z,2.40
2019-01-04T00:25:11.963Z,2.40
2019-01-04T00:26:16.147Z,2.40
2019-01-04T00:27:20.167Z,2.40
2019-01-04T00:28:43.306Z,2.40
2019-01-04T00:29:47.197Z,2.50
2019-01-04T00:30:51.366Z,2.50
2019-01-04T00:31:55.395Z,2.60
2019-01-04T00:32:59.190Z,2.50
2019-01-04T00:34:03.191Z,2.40
2019-01-04T00:35:07.685Z,2.30
2019-01-04T00:36:14.810Z,2.20
2019-01-04T00:37:18.963Z,2.20
2019-01-04T00:38:22.868Z,2.30
2019-01-04T00:39:26.900Z,2.20
2019-01-04T00:40:30.824Z,2.30
2019-01-04T00:41:34.719Z,2.30
2019-01-04T00:42:38.624Z,2.40
2019-01-04T00:44:01.759Z,2.50
2019-01-04T00:45:05.872Z,2.40
2019-01-04T00:46:09.901Z,2.40
2019-01-04T00:47:13.943Z,2.50
2019-01-04T00:48:17.852Z,2.50
2019-01-04T00:49:21.851Z,2.60
2019-01-04T00:50:25.841Z,2.60
2019-01-04T00:51:29.849Z,2.70
2019-01-04T00:52:33.940Z,2.70
2019-01-04T00:53:38.034Z,2.60
2019-01-04T00:54:41.930Z,2.70
2019-01-04T00:56:19.391Z,2.70
2019-01-04T00:57:48.354Z,2.70
2019-01-04T00:59:30.176Z,2.70
2019-01-04T01:01:24.681Z,2.70
2019-01-04T01:03:12.086Z,2.80
2019-01-04T01:04:45.761Z,2.70
2019-01-04T01:06:30.080Z,2.60
2019-01-04T01:08:15.433Z,2.60
2019-01-04T01:10:15.044Z,2.60
2019-01-04T01:11:54.589Z,2.70
2019-01-04T01:13:54.119Z,2.80
2019-01-04T01:15:25.652Z,2.80
2019-01-04T01:16:46.975Z,2.80
2019-01-04T01:18:19.423Z,2.90
2019-01-04T01:20:01.742Z,2.90
2019-01-04T01:22:04.858Z,2.90
2019-01-04T01:23:45.041Z,2.80
2019-01-04T01:25:22.047Z,2.80
2019-01-04T01:27:07.263Z,2.70
2019-01-04T01:28:43.877Z,2.70
2019-01-04T01:30:20.987Z,2.80
2019-01-04T01:31:58.709Z,2.80
2019-01-04T01:33:20.812Z,2.70
2019-01-04T01:35:00.726Z,2.60
2019-01-04T01:36:42.927Z,2.60
2019-01-04T01:38:22.972Z,2.70
2019-01-04T01:39:59.698Z,2.70
2019-01-04T01:41:43.425Z,2.60
2019-01-04T01:43:40.172Z,2.60
2019-01-04T01:45:46.331Z,2.70
2019-01-04T01:47:07.222Z,2.60
2019-01-04T01:48:36.209Z,2.60
2019-01-04T01:50:20.046Z,2.50
2019-01-04T01:51:46.575Z,2.50
2019-01-04T01:52:50.789Z,2.50
2019-01-04T01:53:54.603Z,2.60
2019-01-04T01:54:58.689Z,2.70
2019-01-04T01:56:02.729Z,2.70
2019-01-04T01:57:06.601Z,2.50
2019-01-04T01:58:10.643Z,2.40
2019-01-04T01:59:14.773Z,2.50
2019-01-04T02:00:18.574Z,2.60
2019-01-04T02:01:22.537Z,2.70
2019-01-04T02:02:26.399Z,2.70
2019-01-04T02:03:30.417Z,2.60
2019-01-04T02:04:34.544Z,2.50
2019-01-04T02:05:38.627Z,2.60
2019-01-04T02:06:42.721Z,2.70
2019-01-04T02:07:46.785Z,2.80
2019-01-04T02:08:50.911Z,2.80
2019-01-04T02:09:54.907Z,2.90
2019-01-04T02:10:58.998Z,2.90
2019-01-04T02:12:02.978Z,2.90
2019-01-04T02:13:06.934Z,2.90
2019-01-04T02:14:10.843Z,2.90
2019-01-04T02:15:14.997Z,2.80
2019-01-04T02:16:18.893Z,2.90
2019-01-04T02:17:22.986Z,2.90
2019-01-04T02:18:26.767Z,2.90
2019-01-04T02:19:30.907Z,2.90
2019-01-04T02:20:35.100Z,2.90
2019-01-04T02:21:38.923Z,2.90
2019-01-04T02:22:42.910Z,2.90
2019-01-04T02:23:46.800Z,2.90
2019-01-04T02:24:50.722Z,2.90
2019-01-04T02:25:54.735Z,2.90
2019-01-04T02:26:58.650Z,2.90
2019-01-04T02:28:02.749Z,2.90
2019-01-04T02:29:06.661Z,2.90
2019-01-04T02:30:10.669Z,2.90
2019-01-04T02:31:14.603Z,2.90
2019-01-04T02:32:18.711Z,3.00
2019-01-04T02:33:22.721Z,3.00
2019-01-04T02:34:26.720Z,3.00
2019-01-04T02:35:30.840Z,3.00
2019-01-04T02:36:34.880Z,2.90
2019-01-04T02:37:38.963Z,2.90
2019-01-04T02:38:42.794Z,2.90
2019-01-04T02:39:46.756Z,2.90
2019-01-04T02:40:50.640Z,2.90
2019-01-04T02:41:54.769Z,2.90
2019-01-04T02:42:58.820Z,2.80
2019-01-04T02:44:02.811Z,2.70
2019-01-04T02:45:07.161Z,2.70
2019-01-04T02:46:11.051Z,2.70
2019-01-04T02:47:14.889Z,2.80
2019-01-04T02:48:18.757Z,2.70
2019-01-04T02:49:22.806Z,2.60
2019-01-04T02:50:26.786Z,2.50
2019-01-04T02:51:30.799Z,2.50
2019-01-04T02:52:34.690Z,2.40
2019-01-04T02:53:38.574Z,2.50
2019-01-04T02:54:42.685Z,2.50
2019-01-04T02:55:46.769Z,2.50
2019-01-04T02:56:50.661Z,2.40
2019-01-04T02:57:54.557Z,2.40
2019-01-04T02:58:58.594Z,2.30
2019-01-04T03:00:02.486Z,2.30
2019-01-04T03:01:06.588Z,2.20
2019-01-04T03:02:11.471Z,2.20
2019-01-04T03:03:15.434Z,2.20
2019-01-04T03:04:19.471Z,2.20
2019-01-04T03:05:23.491Z,2.10
2019-01-04T03:06:27.508Z,2.10
2019-01-04T03:07:31.613Z,2.20
2019-01-04T03:08:35.598Z,2.10
2019-01-04T03:09:39.564Z,2.10
2019-01-04T03:10:43.591Z,2.10
2019-01-04T03:11:47.802Z,2.10
2019-01-04T03:12:51.688Z,2.10
2019-01-04T03:13:55.853Z,2.10
2019-01-04T03:14:59.829Z,2.10
2019-01-04T03:16:03.976Z,2.20
2019-01-04T03:17:08.019Z,2.30
2019-01-04T03:18:12.025Z,2.40
2019-01-04T03:19:16.140Z,2.40
2019-01-04T03:20:20.150Z,2.40
2019-01-04T03:21:24.081Z,2.40
2019-01-04T03:22:27.854Z,2.40
2019-01-04T03:23:31.855Z,2.50
2019-01-04T03:24:35.950Z,2.30
2019-01-04T03:25:39.931Z,2.20
2019-01-04T03:26:43.982Z,2.20
2019-01-04T03:27:48.142Z,2.20
2019-01-04T03:28:51.946Z,2.30
2019-01-04T03:29:55.833Z,2.50
2019-01-04T03:30:59.839Z,2.40
2019-01-04T03:32:03.862Z,2.40
2019-01-04T03:33:07.969Z,2.50
2019-01-04T03:34:11.855Z,2.40
2019-01-04T03:35:15.662Z,2.30
2019-01-04T03:36:19.523Z,2.20
2019-01-04T03:37:23.553Z,2.20
2019-01-04T03:38:27.587Z,2.20
2019-01-04T03:39:31.598Z,2.10
2019-01-04T03:40:35.613Z,2.10
2019-01-04T03:41:39.469Z,2.10
2019-01-04T03:42:43.368Z,2.10
2019-01-04T03:43:47.288Z,2.00
2019-01-04T03:44:51.412Z,2.00
2019-01-04T03:45:55.562Z,1.90
2019-01-04T03:46:59.437Z,2.10
2019-01-04T03:48:03.438Z,2.10
2019-01-04T03:49:07.357Z,2.00
2019-01-04T03:50:11.285Z,2.00
2019-01-04T03:51:15.288Z,1.90
2019-01-04T03:52:19.285Z,2.00
2019-01-04T03:53:23.205Z,2.00
2019-01-04T03:54:27.229Z,1.90
2019-01-04T03:55:31.277Z,1.90
2019-01-04T03:56:35.303Z,1.90
2019-01-04T03:57:39.311Z,1.90
2019-01-04T03:58:43.292Z,1.90
2019-01-04T03:59:47.195Z,2.00
2019-01-04T04:00:51.079Z,2.00
2019-01-04T04:01:54.963Z,1.90
2019-01-04T04:02:58.876Z,2.00
2019-01-04T04:04:02.770Z,1.90
2019-01-04T04:05:06.801Z,1.80
2019-01-04T04:06:10.780Z,1.80
2019-01-04T04:07:14.897Z,1.80
2019-01-04T04:08:18.914Z,1.70
2019-01-04T04:09:22.983Z,1.80
2019-01-04T04:10:26.975Z,1.70
2019-01-04T04:11:30.878Z,1.70
2019-01-04T04:12:34.891Z,1.70
2019-01-04T04:13:39.021Z,1.80
2019-01-04T04:14:43.252Z,1.90
2019-01-04T04:15:47.141Z,1.90
2019-01-04T04:16:51.279Z,2.00
2019-01-04T04:17:55.142Z,2.00
2019-01-04T04:18:59.211Z,2.10
2019-01-04T04:20:03.282Z,2.10
2019-01-04T04:21:07.423Z,2.00
2019-01-04T04:22:11.447Z,1.90
2019-01-04T04:23:15.557Z,2.00
2019-01-04T04:24:19.529Z,2.00
2019-01-04T04:25:23.427Z,2.00
2019-01-04T04:26:27.537Z,2.00
2019-01-04T04:27:31.525Z,1.90
2019-01-04T04:28:35.419Z,2.00
2019-01-04T04:29:39.401Z,2.00
2019-01-04T04:30:43.497Z,2.00
2019-01-04T04:31:47.539Z,2.00
2019-01-04T04:32:51.446Z,2.10
2019-01-04T04:33:55.321Z,2.30
2019-01-04T04:34:59.431Z,2.20
2019-01-04T04:36:03.420Z,2.10
2019-01-04T04:37:07.415Z,2.10
2019-01-04T04:38:11.506Z,2.10
2019-01-04T04:39:15.378Z,2.00
2019-01-04T04:40:19.382Z,2.00
2019-01-04T04:41:23.266Z,2.10
2019-01-04T04:42:27.314Z,2.00
2019-01-04T04:43:31.337Z,2.00
2019-01-04T04:44:35.324Z,2.20
2019-01-04T04:45:39.194Z,2.30
2019-01-04T04:46:43.121Z,2.30
2019-01-04T04:47:47.285Z,2.20
2019-01-04T04:48:51.179Z,2.10
2019-01-04T04:49:55.087Z,2.20
2019-01-04T04:50:59.066Z,2.20
2019-01-04T04:52:02.981Z,2.30
2019-01-04T04:53:06.878Z,2.40
2019-01-04T04:54:10.892Z,2.50
2019-01-04T04:55:14.694Z,2.50
2019-01-04T04:56:18.854Z,2.50
2019-01-04T04:57:22.844Z,2.30
2019-01-04T04:58:26.636Z,2.20
2019-01-04T04:59:30.654Z,2.30
2019-01-04T05:00:34.461Z,2.30
2019-01-04T05:01:38.452Z,2.40
2019-01-04T05:02:42.431Z,2.50
2019-01-04T05:03:46.412Z,2.40
2019-01-04T05:04:50.485Z,2.50
2019-01-04T05:05:54.361Z,2.50
2019-01-04T05:06:58.523Z,2.60
2019-01-04T05:08:02.578Z,2.50
2019-01-04T05:09:07.312Z,2.50
2019-01-04T05:10:14.330Z,2.50
2019-01-04T05:11:18.240Z,2.60
2019-01-04T05:12:22.328Z,2.40
2019-01-04T05:13:26.399Z,2.30
2019-01-04T05:14:30.475Z,2.30
2019-01-04T05:15:34.485Z,2.30
2019-01-04T05:16:38.456Z,2.30
2019-01-04T05:17:42.445Z,2.20
2019-01-04T05:18:46.323Z,2.20
2019-01-04T05:19:50.437Z,2.30
2019-01-04T05:20:54.526Z,2.20
2019-01-04T05:21:58.433Z,2.20
2019-01-04T05:23:02.333Z,2.20
2019-01-04T05:24:06.473Z,2.10
2019-01-04T05:25:10.423Z,2.20
2019-01-04T05:26:14.319Z,2.20
2019-01-04T05:27:18.449Z,2.10
2019-01-04T05:28:22.224Z,2.00
2019-01-04T05:29:26.273Z,2.00
2019-01-04T05:30:30.168Z,1.90
2019-01-04T05:31:34.147Z,1.80
2019-01-04T05:32:38.227Z,1.80
2019-01-04T05:33:42.140Z,1.80
2019-01-04T05:34:46.179Z,1.80
2019-01-04T05:35:50.132Z,1.70
2019-01-04T05:36:54.276Z,1.70
2019-01-04T05:37:58.288Z,1.80
2019-01-04T05:39:02.273Z,1.60
2019-01-04T05:40:07.088Z,1.60
2019-01-04T05:41:11.103Z,1.50
2019-01-04T05:42:15.073Z,1.70
2019-01-04T05:43:19.026Z,1.80
2019-01-04T05:44:23.042Z,1.70
2019-01-04T05:45:26.981Z,1.80
2019-01-04T05:46:31.017Z,1.70
2019-01-04T05:47:34.943Z,1.70
2019-01-04T05:48:38.955Z,1.80
2019-01-04T05:49:43.057Z,1.90
2019-01-04T05:50:47.167Z,1.90
2019-01-04T05:51:51.327Z,1.90
2019-01-04T05:52:55.361Z,1.90
2019-01-04T05:53:59.437Z,1.80
2019-01-04T05:55:03.421Z,1.80
2019-01-04T05:56:07.546Z,1.90
2019-01-04T05:57:11.475Z,2.00
2019-01-04T05:58:15.525Z,2.00
2019-01-04T05:59:19.342Z,2.00
2019-01-04T06:00:23.441Z,2.00
2019-01-04T06:01:27.356Z,2.10
2019-01-04T06:02:31.313Z,2.00
2019-01-04T06:03:35.473Z,2.10
2019-01-04T06:04:39.348Z,2.10
2019-01-04T06:05:43.463Z,2.00
2019-01-04T06:06:47.385Z,2.10
2019-01-04T06:07:51.491Z,2.10
2019-01-04T06:08:55.419Z,2.00
2019-01-04T06:09:59.229Z,2.00
2019-01-04T06:11:03.010Z,2.00
2019-01-04T06:12:06.919Z,2.00
2019-01-04T06:13:10.925Z,2.00
2019-01-04T06:14:14.823Z,2.00
2019-01-04T06:15:18.946Z,2.00
2019-01-04T06:16:22.961Z,2.10
2019-01-04T06:17:26.961Z,2.20
2019-01-04T06:18:30.926Z,2.30
2019-01-04T06:19:34.835Z,2.20
2019-01-04T06:20:38.733Z,2.20
2019-01-04T06:21:42.637Z,2.10
2019-01-04T06:22:46.763Z,2.10
2019-01-04T06:23:50.581Z,2.10
2019-01-04T06:24:54.479Z,2.00
2019-01-04T06:25:58.624Z,1.90
2019-01-04T06:27:02.879Z,1.80
2019-01-04T06:28:06.854Z,1.90
2019-01-04T06:29:11.211Z,2.00
2019-01-04T06:30:15.179Z,1.90
2019-01-04T06:31:19.315Z,1.90
2019-01-04T06:32:23.459Z,1.90
2019-01-04T06:33:27.361Z,1.90
2019-01-04T06:34:31.494Z,2.00
2019-01-04T06:35:35.489Z,2.10
2019-01-04T06:36:39.387Z,2.10
2019-01-04T06:37:43.471Z,2.00
2019-01-04T06:38:47.447Z,2.10
2019-01-04T06:39:51.448Z,2.10
2019-01-04T06:40:55.574Z,2.20
2019-01-04T06:41:59.577Z,2.00
2019-01-04T06:43:03.347Z,2.10
2019-01-04T06:44:07.411Z,2.20
2019-01-04T06:45:11.337Z,2.20
2019-01-04T06:46:15.447Z,2.20
2019-01-04T06:47:20.953Z,2.20
2019-01-04T06:48:24.943Z,2.20
2019-01-04T06:49:28.991Z,2.20
2019-01-04T06:50:33.116Z,2.20
2019-01-04T06:51:37.217Z,2.10
2019-01-04T06:52:41.187Z,2.10
2019-01-04T06:53:45.203Z,2.10
2019-01-04T06:55:40.061Z,2.10
2019-01-04T06:56:43.977Z,2.10
2019-01-04T06:57:48.001Z,2.00
2019-01-04T06:58:51.946Z,2.00
2019-01-04T06:59:56.059Z,2.00
2019-01-04T07:00:59.967Z,2.00
2019-01-04T07:02:04.093Z,2.00
2019-01-04T07:03:07.983Z,2.00
2019-01-04T07:04:12.016Z,2.10
2019-01-04T07:05:15.983Z,2.10
2019-01-04T07:06:19.975Z,2.10
2019-01-04T07:07:23.875Z,2.10
2019-01-04T07:08:27.894Z,2.20
2019-01-04T07:09:32.033Z,2.10
2019-01-04T07:10:36.032Z,2.10
2019-01-04T07:11:40.088Z,2.20
2019-01-04T07:12:43.925Z,2.00
2019-01-04T07:13:47.932Z,2.10
2019-01-04T07:14:51.918Z,2.10
2019-01-04T07:15:55.963Z,2.30
2019-01-04T07:17:01.404Z,2.30
2019-01-04T07:18:05.396Z,2.30
2019-01-04T07:19:09.291Z,2.40
2019-01-04T07:20:13.383Z,2.40
2019-01-04T07:21:17.805Z,2.40
2019-01-04T07:22:22.213Z,2.30
2019-01-04T07:23:26.145Z,2.40
2019-01-04T07:24:30.140Z,2.50
2019-01-04T07:25:34.045Z,2.50
2019-01-04T07:26:38.438Z,2.40
2019-01-04T07:27:42.453Z,2.30
2019-01-04T07:28:47.033Z,2.40
2019-01-04T07:29:51.519Z,2.30
2019-01-04T07:30:55.605Z,2.40
2019-01-04T07:32:00.118Z,2.30
2019-01-04T07:33:04.514Z,2.30
2019-01-04T07:34:08.834Z,2.30
2019-01-04T07:35:13.402Z,2.30
2019-01-04T07:36:18.464Z,2.20
2019-01-04T07:37:23.477Z,2.30
2019-01-04T07:38:29.199Z,2.30
2019-01-04T07:39:33.865Z,2.20
2019-01-04T07:40:38.672Z,2.20
2019-01-04T07:41:42.847Z,2.20
2019-01-04T07:42:46.855Z,2.20
2019-01-04T07:43:50.767Z,2.30
2019-01-04T07:44:54.771Z,2.10
2019-01-04T07:45:58.860Z,2.10
2019-01-04T07:47:02.951Z,2.10
2019-01-04T07:48:06.985Z,2.00
2019-01-04T07:49:11.011Z,2.10
2019-01-04T07:50:14.985Z,2.10
2019-01-04T07:51:18.906Z,2.20
2019-01-04T07:52:22.981Z,2.40
2019-01-04T07:53:27.015Z,2.30
2019-01-04T07:54:30.899Z,2.30
2019-01-04T07:55:34.888Z,2.20
2019-01-04T07:56:38.896Z,2.30
2019-01-04T07:57:42.892Z,2.30
2019-01-04T07:58:46.818Z,2.30
2019-01-04T07:59:50.717Z,2.20
2019-01-04T08:00:54.661Z,2.10
2019-01-04T08:01:58.443Z,2.10
2019-01-04T08:03:18.621Z,2.20
2019-01-04T08:04:22.592Z,2.20
2019-01-04T08:05:28.090Z,2.20
2019-01-04T08:06:32.305Z,2.20
2019-01-04T08:07:36.173Z,2.20
2019-01-04T08:08:40.294Z,2.00
2019-01-04T08:09:44.079Z,2.00
2019-01-04T08:10:48.010Z,1.90
2019-01-04T08:11:52.113Z,1.90
2019-01-04T08:12:56.072Z,1.90
2019-01-04T08:13:59.951Z,2.00
2019-01-04T08:15:04.066Z,2.00
2019-01-04T08:16:07.974Z,1.90
2019-01-04T08:17:11.752Z,2.00
2019-01-04T08:18:16.036Z,1.90
2019-01-04T08:19:20.050Z,1.80
2019-01-04T08:20:23.955Z,1.80
2019-01-04T08:21:27.957Z,2.00
2019-01-04T08:22:31.853Z,2.00
2019-01-04T08:23:35.979Z,1.90
2019-01-04T08:24:39.867Z,1.90
2019-01-04T08:25:43.988Z,1.80
2019-01-04T08:26:47.897Z,1.90
2019-01-04T08:27:51.909Z,2.00
2019-01-04T08:28:55.858Z,2.00
2019-01-04T08:29:59.921Z,2.10
2019-01-04T08:31:03.968Z,2.00
2019-01-04T08:32:07.988Z,2.10
2019-01-04T08:33:11.895Z,2.20
2019-01-04T08:34:16.151Z,2.30
2019-01-04T08:35:20.123Z,2.30
2019-01-04T08:36:24.373Z,2.20
2019-01-04T08:37:28.375Z,2.20
2019-01-04T08:38:32.281Z,2.20
2019-01-04T08:39:36.769Z,2.20
2019-01-04T08:40:40.859Z,2.30
2019-01-04T08:41:44.969Z,2.30
2019-01-04T08:42:49.015Z,2.30
2019-01-04T08:43:53.025Z,2.20
2019-01-04T08:44:57.090Z,2.30
2019-01-04T08:46:01.305Z,2.40
2019-01-04T08:47:05.213Z,2.40
2019-01-04T08:48:09.244Z,2.40
2019-01-04T08:49:13.027Z,2.30
2019-01-04T08:50:17.546Z,2.30
2019-01-04T08:51:21.777Z,2.40
2019-01-04T08:52:25.767Z,2.30
2019-01-04T08:53:58.037Z,2.40
2019-01-04T08:55:02.018Z,2.50
2019-01-04T08:56:05.916Z,2.50
2019-01-04T08:57:09.927Z,2.50
2019-01-04T08:58:14.223Z,2.40
2019-01-04T08:59:18.145Z,2.50
2019-01-04T09:00:22.412Z,2.50
2019-01-04T09:01:26.531Z,2.40
2019-01-04T09:02:30.529Z,2.40
2019-01-04T09:03:34.787Z,2.40
2019-01-04T09:04:40.575Z,2.50
2019-01-04T09:05:44.714Z,2.50
2019-01-04T09:06:48.824Z,2.50
2019-01-04T09:07:52.825Z,2.40
2019-01-04T09:08:56.951Z,2.30
2019-01-04T09:10:01.047Z,2.40
2019-01-04T09:11:05.638Z,2.50
2019-01-04T09:12:09.695Z,2.60
2019-01-04T09:13:13.570Z,2.60
2019-01-04T09:14:17.657Z,2.60
2019-01-04T09:15:21.735Z,2.60
2019-01-04T09:16:25.665Z,2.60
2019-01-04T09:17:29.695Z,2.70
2019-01-04T09:18:33.833Z,2.60
2019-01-04T09:19:37.848Z,2.70
2019-01-04T09:20:41.856Z,2.80
2019-01-04T09:21:45.895Z,2.80
2019-01-04T09:22:49.900Z,2.70
2019-01-04T09:23:54.852Z,2.70
2019-01-04T09:24:58.875Z,2.80
2019-01-04T09:26:02.764Z,2.90
2019-01-04T09:27:06.799Z,3.00
2019-01-04T09:28:10.814Z,2.90
2019-01-04T09:29:14.978Z,2.90
2019-01-04T09:30:19.029Z,2.80
2019-01-04T09:31:23.047Z,2.80
2019-01-04T09:32:27.037Z,2.70
2019-01-04T09:33:31.061Z,2.70
2019-01-04T09:34:34.956Z,2.80
2019-01-04T09:35:39.308Z,2.80
2019-01-04T09:36:43.402Z,2.90
2019-01-04T09:37:47.315Z,2.90
2019-01-04T09:38:52.354Z,3.00
2019-01-04T09:39:56.457Z,3.00
2019-01-04T09:41:36.191Z,3.00
2019-01-04T09:42:43.217Z,3.00
2019-01-04T09:43:47.140Z,3.00
2019-01-04T09:44:51.358Z,3.00
2019-01-04T09:45:55.247Z,2.80
2019-01-04T09:46:59.318Z,2.90
2019-01-04T09:48:03.741Z,3.00
2019-01-04T09:49:07.891Z,3.00
2019-01-04T09:50:12.139Z,2.90
2019-01-04T09:51:16.140Z,3.00
2019-01-04T09:52:20.313Z,3.10
2019-01-04T09:53:24.209Z,3.10
2019-01-04T09:54:28.651Z,2.90
2019-01-04T09:55:32.579Z,2.80
2019-01-04T09:56:56.107Z,2.90
2019-01-04T09:58:00.269Z,3.00
2019-01-04T09:59:04.084Z,3.10
2019-01-04T10:00:11.215Z,3.20
2019-01-04T10:01:15.238Z,3.10
2019-01-04T10:02:19.248Z,3.10
2019-01-04T10:03:23.275Z,3.00
2019-01-04T10:04:27.366Z,3.10
2019-01-04T10:05:31.787Z,3.10
2019-01-04T10:06:35.711Z,3.10
2019-01-04T10:07:39.631Z,3.10
2019-01-04T10:08:45.036Z,3.20
2019-01-04T10:09:49.207Z,3.20
2019-01-04T10:10:53.179Z,3.20
2019-01-04T10:11:57.163Z,3.20
2019-01-04T10:13:01.165Z,3.20
2019-01-04T10:14:05.050Z,3.20
2019-01-04T10:15:11.754Z,3.20
2019-01-04T10:16:15.677Z,3.10
2019-01-04T10:17:19.808Z,2.90
2019-01-04T10:18:23.931Z,3.00
2019-01-04T10:19:27.988Z,3.10
2019-01-04T10:20:31.768Z,3.10
2019-01-04T10:21:35.781Z,3.10
2019-01-04T10:22:39.773Z,3.00
2019-01-04T10:23:43.703Z,2.90
2019-01-04T10:24:47.807Z,3.00
2019-01-04T10:25:51.943Z,3.00
2019-01-04T10:26:55.847Z,3.10
2019-01-04T10:27:59.847Z,3.10
2019-01-04T10:29:03.869Z,3.20
2019-01-04T10:30:08.941Z,3.10
2019-01-04T10:31:13.006Z,3.20
2019-01-04T10:32:17.010Z,3.20
2019-01-04T10:33:21.028Z,3.10
2019-01-04T10:34:25.054Z,3.00
2019-01-04T10:35:29.175Z,3.00
2019-01-04T10:36:33.605Z,3.10
2019-01-04T10:37:37.589Z,2.90
2019-01-04T10:38:41.480Z,2.90
2019-01-04T10:39:45.395Z,3.00
2019-01-04T10:40:49.335Z,3.00
2019-01-04T10:41:53.306Z,3.00
2019-01-04T10:42:57.410Z,3.00
2019-01-04T10:44:01.319Z,3.00
2019-01-04T10:45:06.097Z,3.00
2019-01-04T10:46:10.112Z,3.00
2019-01-04T10:47:14.077Z,3.00
2019-01-04T10:48:18.105Z,3.00
2019-01-04T10:49:22.015Z,2.90
2019-01-04T10:50:26.095Z,3.00
2019-01-04T10:51:30.047Z,2.90
2019-01-04T10:52:34.039Z,2.90
2019-01-04T10:53:37.945Z,3.00
2019-01-04T10:54:41.837Z,3.10
2019-01-04T10:55:46.537Z,3.00
2019-01-04T10:56:50.557Z,3.00
2019-01-04T10:57:54.637Z,2.90
2019-01-04T10:58:58.620Z,2.90
2019-01-04T11:00:02.557Z,3.00
2019-01-04T11:01:06.575Z,2.90
2019-01-04T11:02:10.470Z,2.80
2019-01-04T11:03:14.478Z,2.90
2019-01-04T11:04:18.595Z,2.90
2019-01-04T11:05:22.705Z,2.90
2019-01-04T11:06:26.809Z,2.90
2019-01-04T11:07:30.833Z,2.80
2019-01-04T11:08:34.724Z,2.70
2019-01-04T11:09:38.750Z,2.70
2019-01-04T11:10:42.623Z,2.80
2019-01-04T11:11:46.515Z,2.90
2019-01-04T11:12:50.502Z,3.00
2019-01-04T11:13:54.296Z,3.00
2019-01-04T11:14:58.465Z,3.00
2019-01-04T11:16:02.474Z,2.90
2019-01-04T11:17:06.391Z,2.80
2019-01-04T11:18:10.565Z,2.90
2019-01-04T11:19:14.572Z,2.80
2019-01-04T11:20:50.492Z,2.80
2019-01-04T11:22:31.580Z,2.80
2019-01-04T11:24:15.940Z,2.80
2019-01-04T11:25:55.836Z,2.70
2019-01-04T11:27:08.320Z,2.70
2019-01-04T11:28:19.690Z,2.60
2019-01-04T11:30:10.265Z,2.50
2019-01-04T11:31:33.378Z,2.70
2019-01-04T11:33:17.723Z,2.90
2019-01-04T11:34:37.125Z,2.80
2019-01-04T11:36:27.235Z,2.70
2019-01-04T11:38:05.757Z,2.70
2019-01-04T11:39:31.326Z,2.50
2019-01-04T11:41:09.801Z,2.50
2019-01-04T11:42:48.087Z,2.50
2019-01-04T11:44:48.373Z,2.50
2019-01-04T11:46:26.066Z,2.60
2019-01-04T11:48:07.077Z,2.80
2019-01-04T11:49:33.317Z,2.80
2019-01-04T11:51:07.251Z,3.10
2019-01-04T11:52:33.327Z,3.20
2019-01-04T11:53:37.434Z,3.20
2019-01-04T11:54:41.558Z,3.20
2019-01-04T11:55:45.433Z,3.20
2019-01-04T11:56:49.311Z,3.30
2019-01-04T11:57:53.494Z,3.40
2019-01-04T11:58:57.478Z,3.40
2019-01-04T12:00:01.352Z,3.50
2019-01-04T12:01:05.495Z,3.50
2019-01-04T12:02:09.469Z,3.40
2019-01-04T12:03:13.420Z,3.40
2019-01-04T12:04:17.306Z,3.40
2019-01-04T12:05:21.173Z,3.30
2019-01-04T12:06:25.361Z,3.30
2019-01-04T12:07:29.269Z,3.30
2019-01-04T12:08:33.255Z,3.30
2019-01-04T12:09:37.161Z,3.30
2019-01-04T12:10:41.283Z,3.40
2019-01-04T12:11:45.069Z,3.50
2019-01-04T12:12:49.183Z,3.50
2019-01-04T12:13:53.135Z,3.40
2019-01-04T12:14:57.257Z,3.40
2019-01-04T12:16:01.522Z,3.40
2019-01-04T12:17:05.509Z,3.50
2019-01-04T12:18:09.639Z,3.50
2019-01-04T12:19:13.470Z,3.50
2019-01-04T12:20:17.841Z,3.40
2019-01-04T12:21:21.839Z,3.30
2019-01-04T12:22:25.909Z,3.20
2019-01-04T12:23:29.954Z,3.20
2019-01-04T12:24:33.971Z,3.20
2019-01-04T12:25:37.851Z,3.20
2019-01-04T12:26:41.983Z,3.30
2019-01-04T12:27:46.001Z,3.20
2019-01-04T12:28:49.986Z,3.20
2019-01-04T12:29:53.984Z,3.30
2019-01-04T12:30:57.892Z,3.30
2019-01-04T12:32:01.921Z,3.20
2019-01-04T12:33:05.800Z,3.20
2019-01-04T12:34:09.781Z,3.10
2019-01-04T12:35:32.951Z,3.20
2019-01-04T12:36:36.911Z,3.30
2019-01-04T12:37:40.827Z,3.50
2019-01-04T12:38:44.828Z,3.40
2019-01-04T12:39:48.732Z,3.30
2019-01-04T12:40:52.768Z,3.30
2019-01-04T12:41:56.674Z,3.40
2019-01-04T12:43:09.643Z,3.40
2019-01-04T12:44:13.647Z,3.50
2019-01-04T12:45:17.539Z,3.50
2019-01-04T12:46:21.445Z,3.60
2019-01-04T12:47:25.341Z,3.60
2019-01-04T12:48:29.457Z,3.50
2019-01-04T12:49:33.431Z,3.50
2019-01-04T12:50:37.455Z,3.50
2019-01-04T12:51:41.615Z,3.60
2019-01-04T12:52:45.488Z,3.60
2019-01-04T12:53:49.595Z,3.60
2019-01-04T12:54:53.602Z,3.50
2019-01-04T12:55:57.411Z,3.40
2019-01-04T12:57:01.425Z,3.40
2019-01-04T12:58:05.341Z,3.30
2019-01-04T12:59:09.480Z,3.30
2019-01-04T13:00:13.762Z,3.30
2019-01-04T13:01:17.773Z,3.40
2019-01-04T13:02:21.687Z,3.40
2019-01-04T13:03:25.723Z,3.30
2019-01-04T13:04:29.619Z,3.30
2019-01-04T13:05:33.709Z,3.20
2019-01-04T13:06:37.620Z,3.20
2019-01-04T13:07:41.533Z,3.40
2019-01-04T13:08:45.472Z,3.40
2019-01-04T13:09:49.573Z,3.40
2019-01-04T13:10:53.581Z,3.50
2019-01-04T13:11:57.537Z,3.50
2019-01-04T13:13:01.509Z,3.60
2019-01-04T13:14:05.951Z,3.60
2019-01-04T13:15:09.830Z,3.50
2019-01-04T13:16:14.243Z,3.40
2019-01-04T13:17:18.245Z,3.30
2019-01-04T13:18:22.215Z,3.30
2019-01-04T13:19:26.127Z,3.30
2019-01-04T13:20:30.013Z,3.20
2019-01-04T13:21:34.126Z,3.30
2019-01-04T13:22:38.038Z,3.30
2019-01-04T13:23:41.852Z,3.30
2019-01-04T13:24:45.653Z,3.30
2019-01-04T13:25:49.817Z,3.40
2019-01-04T13:26:53.720Z,3.40
2019-01-04T13:27:57.704Z,3.40
2019-01-04T13:29:01.711Z,3.30
2019-01-04T13:30:06.020Z,3.30
2019-01-04T13:31:10.166Z,3.40
2019-01-04T13:32:14.067Z,3.30
2019-01-04T13:33:18.079Z,3.30
2019-01-04T13:34:22.201Z,3.20
2019-01-04T13:35:26.202Z,3.20
2019-01-04T13:36:30.338Z,3.30
2019-01-04T13:37:34.237Z,3.30
2019-01-04T13:38:38.131Z,3.30
2019-01-04T13:39:42.143Z,3.30
2019-01-04T13:40:45.949Z,3.40
2019-01-04T13:41:50.079Z,3.30
2019-01-04T13:42:54.072Z,3.30
2019-01-04T13:43:58.058Z,3.30
2019-01-04T13:45:02.081Z,3.30
2019-01-04T13:46:06.127Z,3.30
2019-01-04T13:47:10.099Z,3.20
2019-01-04T13:48:14.105Z,3.10
2019-01-04T13:49:18.111Z,3.10
2019-01-04T13:50:22.117Z,3.00
2019-01-04T13:51:26.149Z,3.10
2019-01-04T13:52:30.043Z,3.10
2019-01-04T13:53:33.945Z,3.10
2019-01-04T13:54:37.837Z,3.20
2019-01-04T13:55:41.862Z,3.20
2019-01-04T13:56:45.963Z,3.20
2019-01-04T13:57:49.983Z,3.20
2019-01-04T13:58:54.115Z,3.20
2019-01-04T13:59:58.235Z,3.20
2019-01-04T14:01:02.247Z,3.10
2019-01-04T14:02:06.357Z,3.10
2019-01-04T14:03:29.506Z,3.20
2019-01-04T14:04:33.491Z,3.30
2019-01-04T14:05:37.462Z,3.20
2019-01-04T14:06:41.575Z,3.20
2019-01-04T14:07:45.601Z,3.30
2019-01-04T14:08:49.512Z,3.20
2019-01-04T14:09:53.493Z,3.20
2019-01-04T14:10:57.383Z,3.10
2019-01-04T14:12:01.501Z,3.10
2019-01-04T14:13:09.266Z,3.10
2019-01-04T14:14:11.057Z,3.20
2019-01-04T14:15:14.949Z,3.20
2019-01-04T14:16:18.877Z,3.20
2019-01-04T14:17:22.888Z,3.30
2019-01-04T14:18:26.789Z,3.30
2019-01-04T14:19:30.820Z,3.40
2019-01-04T14:20:34.988Z,3.40
2019-01-04T14:21:38.907Z,3.30
2019-01-04T14:22:42.793Z,3.20
2019-01-04T14:23:46.861Z,3.20
2019-01-04T14:24:50.889Z,3.20
2019-01-04T14:25:54.693Z,3.00
2019-01-04T14:26:58.477Z,3.10
2019-01-04T14:28:02.859Z,3.10
2019-01-04T14:29:06.756Z,3.10
2019-01-04T14:30:12.111Z,3.20
2019-01-04T14:31:16.354Z,3.20
2019-01-04T14:32:20.536Z,3.30
2019-01-04T14:33:24.553Z,3.30
2019-01-04T14:34:28.454Z,3.20
2019-01-04T14:35:32.565Z,3.20
2019-01-04T14:36:36.481Z,3.30
2019-01-04T14:37:40.602Z,3.20
2019-01-04T14:38:44.623Z,3.10
2019-01-04T14:39:48.421Z,3.00
2019-01-04T14:40:52.336Z,3.10
2019-01-04T14:41:56.485Z,3.10
2019-01-04T14:43:00.601Z,3.10
2019-01-04T14:44:04.376Z,3.20
2019-01-04T14:45:08.980Z,3.10
2019-01-04T14:46:13.127Z,3.20
2019-01-04T14:47:17.227Z,3.10
2019-01-04T14:48:19.738Z,3.10